עמוד ראשי
METAR-TAF:

METAR-TAF

שדות תעופה :

קורדובה, ספרד

קו רוחב: 37-51N, קו אורך: 004-51W, גובה: 90מטר

תצפית מזג אוויר נוכחית

הדו"ח נערך לפני 24דקות, בשעה 23:00 UTC
רוח 5קשר מכיוון מערב/דרום-מערב
טמפרטורת 20 צלסיוס
לחות 56%
לחץ 1014 hPa
ראות 10 קילומטר או יותר
ללא עננים שבסיסם נמוך מ 5000 רגל או קומולונימבוס

METAR: LEBA 152300Z AUTO 25005KT CAVOK 20/11 Q1014

זמן: 01:24 (23:24 UTC)

תחזית

הדו"ח נערך לפני 9 שעות ו 24דקות, בשעה 14:00 UTC
תחזית בתוקף מ 15 ב 15 UTC עד 16 ב 15 UTC
רוח 10קשר מכיוון מערב/דרום-מערב
ראות 10 קילומטר או יותר
ללא עננים שבסיסם נמוך מ 5000 רגל או קומולונימבוס
יעשה מ
15 ב 21 UTC עד 15 ב 23 UTC
רוח 2קשר עם כיוונים משתנים

TAF: LEBA 151400Z 1515/1615 24010KT CAVOK TX34/1515Z TN16/1605Z BECMG 1521/1523 VRB02KT

תצפיות ותחזיות מזג אוויר לגבי יותר מ- 4,000 שדות תעופה ברחבי העולם. דוחות METAR ו- TAF.

התחנות הזמינות מסומנות בנקודות צהובות ואדומות על גבי המפה.

העבר את העכבר לנקודה הצבעונית על מנת לראות את שם התחנה.

לאחר מכן, לחץ כדי לראות את תוכן ואת תחזיות מזג האוויר.

כדי לשנות את המפה: לחץ על הכפתורים הירוקים עם הפלוס השחור כדי להתקרב; על הכפתור הירוק עם המקף כדי להתרחק; או בחיצים הירוקים למפות סמוכות.


METAR-TAF: